createdAt,value
2023-04-15T00:01:45.092Z,6.90
2023-04-15T00:04:13.014Z,6.55
2023-04-15T00:06:40.992Z,7.10
2023-04-15T00:09:08.866Z,6.35
2023-04-15T00:11:38.021Z,6.25
2023-04-15T00:14:06.236Z,6.82
2023-04-15T00:16:34.046Z,6.75
2023-04-15T00:19:01.954Z,6.53
2023-04-15T00:21:30.060Z,6.88
2023-04-15T00:23:57.867Z,7.30
2023-04-15T00:26:25.586Z,7.00
2023-04-15T00:28:55.069Z,6.63
2023-04-15T00:31:23.108Z,6.60
2023-04-15T00:33:51.060Z,6.80
2023-04-15T00:36:18.835Z,6.25
2023-04-15T00:38:46.562Z,6.43
2023-04-15T00:41:14.573Z,6.55
2023-04-15T00:43:42.374Z,7.20
2023-04-15T00:46:16.898Z,6.15
2023-04-15T00:48:45.086Z,6.82
2023-04-15T00:51:13.195Z,6.50
2023-04-15T00:53:41.133Z,7.03
2023-04-15T00:56:09.096Z,6.53
2023-04-15T00:58:37.120Z,6.22
2023-04-15T01:01:05.573Z,6.53
2023-04-15T01:03:35.374Z,6.43
2023-04-15T01:06:04.412Z,6.40
2023-04-15T01:08:32.574Z,6.53
2023-04-15T01:11:03.490Z,6.85
2023-04-15T01:13:32.320Z,6.70
2023-04-15T01:16:00.236Z,6.53
2023-04-15T01:18:28.570Z,6.60
2023-04-15T01:20:58.192Z,6.72
2023-04-15T01:23:26.310Z,6.32
2023-04-15T01:25:57.349Z,6.43
2023-04-15T01:28:25.409Z,6.53
2023-04-15T01:31:07.484Z,6.40
2023-04-15T01:33:38.542Z,6.55
2023-04-15T01:36:10.003Z,6.50
2023-04-15T01:38:38.438Z,6.55
2023-04-15T01:41:08.225Z,6.38
2023-04-15T01:43:37.234Z,6.72
2023-04-15T01:46:05.143Z,6.90
2023-04-15T01:48:33.466Z,6.28
2023-04-15T01:51:01.431Z,6.60
2023-04-15T01:53:29.444Z,6.63
2023-04-15T01:55:57.236Z,6.85
2023-04-15T01:58:27.182Z,6.28
2023-04-15T02:00:55.447Z,6.10
2023-04-15T02:03:23.639Z,6.80
2023-04-15T02:05:53.578Z,6.30
2023-04-15T02:08:22.414Z,6.28
2023-04-15T02:10:50.343Z,6.40
2023-04-15T02:13:18.167Z,6.90
2023-04-15T02:15:50.033Z,7.20
2023-04-15T02:18:20.501Z,6.25
2023-04-15T02:20:48.811Z,6.60
2023-04-15T02:23:16.814Z,6.97
2023-04-15T02:25:53.432Z,6.45
2023-04-15T02:28:22.179Z,6.28
2023-04-15T02:30:53.327Z,6.50
2023-04-15T02:33:22.518Z,6.75
2023-04-15T02:35:50.834Z,6.70
2023-04-15T02:38:18.638Z,6.05
2023-04-15T02:40:46.618Z,6.20
2023-04-15T02:43:14.385Z,5.97
2023-04-15T02:45:43.520Z,6.75
2023-04-15T02:48:12.784Z,6.75
2023-04-15T02:50:40.803Z,6.32
2023-04-15T02:53:10.503Z,6.40
2023-04-15T02:55:38.248Z,6.15
2023-04-15T02:58:06.097Z,6.80
2023-04-15T03:00:34.009Z,6.03
2023-04-15T03:03:05.640Z,6.57
2023-04-15T03:05:34.971Z,6.22
2023-04-15T03:08:05.299Z,6.13
2023-04-15T03:10:33.054Z,6.50
2023-04-15T03:13:02.673Z,6.03
2023-04-15T03:15:30.773Z,6.32
2023-04-15T03:17:58.663Z,6.10
2023-04-15T03:20:26.505Z,6.35
2023-04-15T03:22:55.870Z,6.32
2023-04-15T03:25:25.096Z,6.25
2023-04-15T03:27:52.919Z,6.43
2023-04-15T03:30:20.759Z,6.60
2023-04-15T03:32:48.575Z,6.47
2023-04-15T03:35:17.097Z,6.65
2023-04-15T03:37:44.904Z,6.40
2023-04-15T03:40:14.302Z,6.63
2023-04-15T03:42:42.098Z,6.47
2023-04-15T03:45:10.786Z,6.43
2023-04-15T03:47:38.643Z,6.38
2023-04-15T03:50:07.492Z,6.57
2023-04-15T03:52:35.435Z,6.70
2023-04-15T03:55:03.309Z,7.28
2023-04-15T03:57:32.416Z,6.63
2023-04-15T04:00:00.224Z,6.43
2023-04-15T04:02:28.297Z,6.80
2023-04-15T04:04:56.294Z,6.97
2023-04-15T04:07:25.479Z,7.00
2023-04-15T04:09:53.352Z,6.75
2023-04-15T04:12:21.087Z,6.80
2023-04-15T04:14:50.453Z,6.93
2023-04-15T04:17:18.319Z,7.15
2023-04-15T04:19:46.398Z,6.82
2023-04-15T04:22:14.133Z,6.93
2023-04-15T04:24:41.914Z,7.03
2023-04-15T04:27:09.666Z,7.03
2023-04-15T04:29:37.406Z,7.05
2023-04-15T04:32:07.026Z,6.47
2023-04-15T04:34:34.838Z,7.25
2023-04-15T04:37:02.641Z,6.82
2023-04-15T04:39:30.508Z,7.40
2023-04-15T04:41:58.278Z,7.32
2023-04-15T04:44:26.153Z,7.05
2023-04-15T04:46:54.095Z,7.28
2023-04-15T04:49:23.197Z,7.13
2023-04-15T04:51:51.449Z,7.13
2023-04-15T04:54:19.228Z,7.57
2023-04-15T04:56:47.066Z,7.30
2023-04-15T04:59:14.828Z,7.50
2023-04-15T05:01:42.887Z,7.22
2023-04-15T05:04:10.786Z,7.00
2023-04-15T05:06:39.961Z,7.13
2023-04-15T05:09:08.105Z,7.18
2023-04-15T05:11:35.951Z,7.70
2023-04-15T05:14:03.713Z,7.20
2023-04-15T05:16:31.514Z,7.60
2023-04-15T05:18:59.499Z,7.53
2023-04-15T05:21:27.662Z,7.15
2023-04-15T05:23:56.787Z,6.97
2023-04-15T05:26:24.896Z,7.78
2023-04-15T05:28:52.658Z,7.47
2023-04-15T05:31:20.994Z,6.97
2023-04-15T05:33:48.841Z,7.47
2023-04-15T05:36:16.673Z,6.60
2023-04-15T05:38:44.438Z,7.60
2023-04-15T05:41:16.586Z,7.70
2023-04-15T05:43:46.473Z,7.57
2023-04-15T05:46:14.304Z,7.28
2023-04-15T05:48:42.152Z,7.45
2023-04-15T05:51:10.551Z,7.30
2023-04-15T05:53:38.355Z,7.50
2023-04-15T05:56:06.557Z,7.80
2023-04-15T05:58:35.756Z,7.15
2023-04-15T06:01:04.002Z,7.03
2023-04-15T06:03:31.931Z,7.30
2023-04-15T06:06:00.870Z,7.63
2023-04-15T06:08:28.869Z,8.10
2023-04-15T06:10:56.749Z,7.60
2023-04-15T06:13:24.561Z,7.90
2023-04-15T06:15:54.076Z,7.90
2023-04-15T06:18:22.236Z,8.15
2023-04-15T06:20:50.061Z,7.63
2023-04-15T06:23:17.874Z,7.47
2023-04-15T06:25:45.773Z,8.07
2023-04-15T06:28:13.676Z,8.13
2023-04-15T06:30:41.516Z,7.75
2023-04-15T06:33:10.785Z,8.02
2023-04-15T06:35:39.172Z,8.05
2023-04-15T06:38:07.079Z,8.52
2023-04-15T06:40:35.986Z,8.30
2023-04-15T06:43:04.830Z,7.80
2023-04-15T06:45:32.665Z,8.02
2023-04-15T06:48:00.707Z,8.40
2023-04-15T06:50:29.926Z,8.00
2023-04-15T06:52:58.241Z,7.78
2023-04-15T06:55:26.003Z,8.20
2023-04-15T06:57:53.765Z,8.35
2023-04-15T07:00:21.588Z,7.97
2023-04-15T07:02:52.786Z,8.27
2023-04-15T07:05:20.715Z,7.82
2023-04-15T07:07:50.210Z,7.63
2023-04-15T07:10:18.256Z,8.43
2023-04-15T07:12:46.179Z,7.88
2023-04-15T07:15:13.953Z,7.63
2023-04-15T07:17:43.142Z,8.00
2023-04-15T07:20:11.798Z,8.05
2023-04-15T07:22:39.732Z,7.18
2023-04-15T07:25:10.131Z,7.88
2023-04-15T07:27:37.943Z,8.10
2023-04-15T07:30:06.786Z,7.35
2023-04-15T07:32:34.627Z,7.28
2023-04-15T07:35:03.707Z,8.02
2023-04-15T07:37:31.532Z,7.70
2023-04-15T07:39:59.270Z,7.70
2023-04-15T07:42:29.226Z,7.63
2023-04-15T07:44:57.748Z,7.13
2023-04-15T07:47:25.761Z,6.47
2023-04-15T07:49:54.064Z,5.63
2023-04-15T07:52:22.286Z,5.45
2023-04-15T07:54:50.036Z,5.18
2023-04-15T07:57:18.377Z,4.88
2023-04-15T07:59:47.501Z,4.78
2023-04-15T08:02:15.463Z,5.25
2023-04-15T08:04:43.589Z,5.15
2023-04-15T08:07:11.780Z,5.20
2023-04-15T08:09:39.532Z,5.38
2023-04-15T08:12:09.439Z,5.40
2023-04-15T08:14:37.239Z,5.18
2023-04-15T08:17:06.687Z,5.28
2023-04-15T08:19:34.501Z,5.28
2023-04-15T08:22:02.405Z,5.47
2023-04-15T08:24:31.476Z,4.75
2023-04-15T08:26:59.889Z,4.40
2023-04-15T08:29:27.757Z,4.07
2023-04-15T08:31:55.737Z,4.43
2023-04-15T08:34:25.272Z,3.92
2023-04-15T08:36:53.085Z,3.95
2023-04-15T08:39:20.997Z,4.00
2023-04-15T08:41:52.748Z,3.70
2023-04-15T08:44:22.129Z,5.03
2023-04-15T08:46:50.516Z,4.15
2023-04-15T08:49:20.232Z,4.00
2023-04-15T08:51:50.231Z,3.92
2023-04-15T08:54:18.074Z,3.80
2023-04-15T08:56:46.248Z,3.95
2023-04-15T08:59:14.904Z,4.43
2023-04-15T09:01:42.954Z,4.35
2023-04-15T09:04:12.630Z,4.43
2023-04-15T09:06:41.601Z,4.65
2023-04-15T09:09:10.748Z,4.50
2023-04-15T09:11:38.629Z,4.20
2023-04-15T09:14:06.426Z,4.15
2023-04-15T09:16:57.752Z,3.92
2023-04-15T09:19:26.260Z,4.50
2023-04-15T09:21:58.411Z,4.70
2023-04-15T09:24:38.380Z,3.75
2023-04-15T09:27:06.839Z,3.60
2023-04-15T09:29:34.831Z,3.90
2023-04-15T09:32:13.537Z,3.80
2023-04-15T09:34:41.341Z,3.38
2023-04-15T09:37:10.873Z,3.28
2023-04-15T09:39:51.007Z,3.40
2023-04-15T09:42:24.345Z,3.47
2023-04-15T09:44:52.921Z,3.05
2023-04-15T09:47:38.795Z,3.75
2023-04-15T09:50:07.600Z,3.55
2023-04-15T09:52:43.005Z,3.92
2023-04-15T09:55:13.008Z,3.92
2023-04-15T09:57:42.417Z,4.22
2023-04-15T10:00:11.373Z,3.60
2023-04-15T10:02:40.955Z,3.00
2023-04-15T10:05:11.917Z,3.08
2023-04-15T10:07:41.039Z,3.25
2023-04-15T10:10:09.595Z,3.35
2023-04-15T10:12:42.110Z,3.22
2023-04-15T10:15:17.530Z,3.22
2023-04-15T10:17:46.271Z,3.03
2023-04-15T10:20:15.962Z,2.72
2023-04-15T10:22:46.381Z,2.72
2023-04-15T10:25:16.394Z,2.95
2023-04-15T10:27:46.461Z,2.95
2023-04-15T10:30:14.671Z,2.90
2023-04-15T10:32:43.273Z,2.92
2023-04-15T10:35:12.173Z,2.72
2023-04-15T10:37:40.322Z,3.30
2023-04-15T10:40:29.139Z,2.53
2023-04-15T10:42:59.448Z,2.95
2023-04-15T10:45:28.839Z,3.00
2023-04-15T10:47:58.086Z,2.85
2023-04-15T10:50:29.733Z,2.78
2023-04-15T10:52:58.362Z,2.63
2023-04-15T10:55:27.802Z,2.70
2023-04-15T10:57:56.879Z,2.92
2023-04-15T11:00:29.710Z,2.80
2023-04-15T11:03:01.194Z,2.85
2023-04-15T11:05:50.387Z,2.50
2023-04-15T11:08:18.314Z,2.70
2023-04-15T11:10:55.243Z,2.80
2023-04-15T11:13:31.689Z,2.70
2023-04-15T11:16:02.566Z,2.22
2023-04-15T11:18:36.299Z,2.40
2023-04-15T11:21:06.793Z,2.40
2023-04-15T11:23:38.021Z,2.70
2023-04-15T11:26:09.535Z,2.50
2023-04-15T11:28:39.164Z,2.42
2023-04-15T11:31:11.813Z,2.20
2023-04-15T11:33:46.899Z,2.30
2023-04-15T11:36:14.887Z,2.75
2023-04-15T11:38:47.454Z,2.78
2023-04-15T11:41:15.454Z,3.00
2023-04-15T11:43:43.795Z,2.60
2023-04-15T11:46:13.036Z,2.53
2023-04-15T11:48:44.328Z,2.50
2023-04-15T11:51:13.145Z,2.40
2023-04-15T11:53:42.486Z,2.55
2023-04-15T11:56:11.721Z,2.50
2023-04-15T11:58:40.193Z,2.40
2023-04-15T12:01:08.359Z,2.47
2023-04-15T12:03:42.462Z,2.38
2023-04-15T12:06:17.053Z,2.33
2023-04-15T12:09:02.868Z,2.13
2023-04-15T12:11:33.306Z,2.30
2023-04-15T12:14:05.856Z,1.90
2023-04-15T12:16:37.261Z,2.10
2023-04-15T12:19:24.197Z,2.30
2023-04-15T12:21:53.452Z,1.92
2023-04-15T12:24:23.684Z,1.70
2023-04-15T12:26:53.398Z,1.67
2023-04-15T12:29:22.180Z,1.60
2023-04-15T12:31:52.376Z,1.67
2023-04-15T12:34:29.430Z,1.70
2023-04-15T12:36:58.906Z,1.80
2023-04-15T12:39:29.978Z,1.80
2023-04-15T12:41:58.772Z,1.80
2023-04-15T12:44:27.146Z,2.15
2023-04-15T12:46:55.513Z,1.95
2023-04-15T12:49:25.498Z,1.85
2023-04-15T12:51:55.339Z,2.03
2023-04-15T12:54:23.516Z,2.13
2023-04-15T12:56:52.295Z,1.90
2023-04-15T12:59:20.125Z,1.90
2023-04-15T13:01:48.825Z,1.77
2023-04-15T13:04:17.619Z,1.98
2023-04-15T13:06:46.774Z,2.05
2023-04-15T13:09:14.598Z,1.52
2023-04-15T13:11:42.559Z,1.70
2023-04-15T13:14:11.446Z,2.00
2023-04-15T13:16:39.834Z,1.98
2023-04-15T13:19:07.977Z,2.08
2023-04-15T13:21:36.420Z,2.05
2023-04-15T13:24:07.204Z,1.83
2023-04-15T13:29:02.896Z,1.90
2023-04-15T13:31:30.741Z,1.98
2023-04-15T13:33:58.553Z,2.00
2023-04-15T13:36:26.412Z,2.10
2023-04-15T13:38:54.215Z,1.80
2023-04-15T13:41:23.364Z,1.83
2023-04-15T13:43:51.193Z,1.98
2023-04-15T13:46:19.200Z,1.90
2023-04-15T13:48:46.993Z,1.70
2023-04-15T13:51:14.804Z,2.95
2023-04-15T13:53:42.567Z,1.70
2023-04-15T13:56:10.797Z,1.80
2023-04-15T13:58:41.506Z,1.70
2023-04-15T14:01:09.511Z,1.70
2023-04-15T14:03:37.490Z,1.60
2023-04-15T14:06:06.171Z,1.48
2023-04-15T14:08:34.189Z,1.38
2023-04-15T14:11:02.063Z,1.58
2023-04-15T14:13:30.076Z,1.30
2023-04-15T14:15:59.380Z,1.42
2023-04-15T14:18:27.283Z,1.45
2023-04-15T14:20:55.541Z,1.40
2023-04-15T14:23:23.426Z,1.70
2023-04-15T14:25:51.718Z,1.70
2023-04-15T14:28:19.483Z,1.85
2023-04-15T14:30:47.459Z,1.70
2023-04-15T14:33:16.770Z,1.90
2023-04-15T14:35:44.574Z,1.98
2023-04-15T14:38:12.354Z,2.17
2023-04-15T14:40:40.255Z,2.00
2023-04-15T14:43:08.126Z,1.90
2023-04-15T14:45:36.327Z,1.75
2023-04-15T14:48:04.514Z,1.90
2023-04-15T14:50:33.740Z,1.73
2023-04-15T14:53:01.488Z,1.70
2023-04-15T14:55:29.272Z,1.60
2023-04-15T14:57:57.059Z,1.80
2023-04-15T15:00:24.822Z,1.80
2023-04-15T15:02:52.699Z,1.60
2023-04-15T15:05:20.812Z,1.90
2023-04-15T15:07:49.977Z,1.65
2023-04-15T15:10:17.929Z,1.25
2023-04-15T15:13:06.798Z,1.52
2023-04-15T15:15:34.889Z,1.52
2023-04-15T15:18:03.238Z,1.50
2023-04-15T15:20:31.701Z,1.40
2023-04-15T15:23:01.248Z,1.40
2023-04-15T15:25:29.771Z,1.48
2023-04-15T15:27:58.971Z,1.40
2023-04-15T15:30:27.010Z,1.50
2023-04-15T15:32:54.953Z,1.45
2023-04-15T15:35:23.627Z,1.45
2023-04-15T15:37:51.574Z,1.45
2023-04-15T15:40:20.762Z,1.50
2023-04-15T15:42:49.915Z,1.70
2023-04-15T15:45:18.304Z,2.00
2023-04-15T15:47:46.291Z,1.80
2023-04-15T15:50:14.792Z,1.63
2023-04-15T15:52:42.605Z,1.60
2023-04-15T15:55:10.709Z,1.60
2023-04-15T15:57:39.967Z,1.65
2023-04-15T16:00:12.712Z,1.30
2023-04-15T16:07:39.797Z,1.40
2023-04-15T16:10:08.676Z,1.55
2023-04-15T16:12:36.601Z,1.48
2023-04-15T16:15:06.721Z,1.77
2023-04-15T16:17:34.737Z,1.63
2023-04-15T16:20:05.406Z,1.90
2023-04-15T16:22:33.657Z,1.85
2023-04-15T16:25:02.111Z,1.73
2023-04-15T16:27:29.976Z,1.58
2023-04-15T16:29:57.723Z,1.88
2023-04-15T16:32:27.982Z,1.55
2023-04-15T16:34:56.160Z,1.83
2023-04-15T16:37:24.053Z,1.55
2023-04-15T16:39:51.847Z,2.05
2023-04-15T16:42:19.752Z,1.55
2023-04-15T16:44:47.509Z,1.40
2023-04-15T16:47:15.307Z,1.50
2023-04-15T16:49:44.434Z,1.52
2023-04-15T16:52:12.218Z,1.55
2023-04-15T16:54:41.418Z,1.48
2023-04-15T16:57:09.370Z,1.50
2023-04-15T16:59:37.230Z,1.65
2023-04-15T17:02:05.185Z,1.60
2023-04-15T17:04:33.392Z,1.20
2023-04-15T17:07:02.713Z,1.30
2023-04-15T17:09:30.477Z,1.40
2023-04-15T17:11:58.586Z,1.10
2023-04-15T17:14:26.422Z,1.52
2023-04-15T17:16:54.275Z,1.35
2023-04-15T17:19:22.252Z,1.33
2023-04-15T17:21:50.100Z,1.08
2023-04-15T17:24:19.297Z,1.50
2023-04-15T17:26:47.870Z,1.20
2023-04-15T17:29:15.591Z,1.30
2023-04-15T17:31:43.494Z,1.50
2023-04-15T17:34:12.640Z,1.20
2023-04-15T17:36:41.795Z,1.38
2023-04-15T17:39:09.593Z,1.23
2023-04-15T17:41:38.788Z,1.10
2023-04-15T17:44:06.783Z,1.25
2023-04-15T17:46:34.933Z,1.40
2023-04-15T17:49:03.343Z,1.83
2023-04-15T17:51:31.738Z,1.52
2023-04-15T17:54:08.076Z,1.70
2023-04-15T17:56:35.911Z,1.52
2023-04-15T17:59:05.009Z,1.75
2023-04-15T18:01:32.849Z,1.90
2023-04-15T18:04:00.842Z,1.40
2023-04-15T18:06:28.739Z,1.40
2023-04-15T18:08:56.589Z,1.88
2023-04-15T18:11:24.395Z,1.60
2023-04-15T18:13:52.231Z,1.63
2023-04-15T18:16:21.581Z,1.33
2023-04-15T18:18:49.394Z,1.30
2023-04-15T18:21:17.146Z,1.40
2023-04-15T18:23:45.060Z,1.38
2023-04-15T18:26:12.802Z,1.33
2023-04-15T18:28:40.656Z,1.38
2023-04-15T18:31:08.488Z,1.63
2023-04-15T18:33:37.657Z,1.25
2023-04-15T18:36:05.618Z,1.38
2023-04-15T18:38:33.385Z,1.30
2023-04-15T18:41:01.312Z,1.30
2023-04-15T18:43:29.070Z,1.40
2023-04-15T18:45:56.958Z,1.25
2023-04-15T18:48:24.823Z,1.40
2023-04-15T18:50:54.345Z,1.30
2023-04-15T18:53:22.497Z,1.30
2023-04-15T18:55:50.466Z,1.60
2023-04-15T18:58:18.361Z,1.67
2023-04-15T19:00:46.249Z,1.58
2023-04-15T19:03:14.158Z,1.50
2023-04-15T19:05:41.969Z,1.60
2023-04-15T19:08:11.721Z,1.60
2023-04-15T19:10:39.691Z,1.95
2023-04-15T19:13:07.528Z,1.73
2023-04-15T19:15:35.352Z,1.40
2023-04-15T19:18:05.296Z,1.58
2023-04-15T19:20:36.644Z,1.40
2023-04-15T19:23:06.163Z,1.58
2023-04-15T19:25:35.351Z,1.80
2023-04-15T19:28:03.218Z,1.88
2023-04-15T19:30:32.370Z,1.75
2023-04-15T19:33:00.317Z,1.63
2023-04-15T19:35:28.189Z,1.70
2023-04-15T19:37:56.037Z,1.80
2023-04-15T19:40:23.850Z,1.85
2023-04-15T19:42:53.065Z,1.80
2023-04-15T19:45:20.991Z,1.50
2023-04-15T19:47:49.067Z,1.90
2023-04-15T19:50:17.020Z,2.08
2023-04-15T19:52:44.797Z,2.00
2023-04-15T19:55:12.592Z,1.50
2023-04-15T19:57:40.823Z,2.03
2023-04-15T20:00:11.356Z,1.80
2023-04-15T20:02:39.241Z,1.77
2023-04-15T20:05:09.824Z,1.65
2023-04-15T20:07:39.607Z,1.58
2023-04-15T20:10:12.134Z,1.63
2023-04-15T20:12:50.394Z,1.40
2023-04-15T20:15:23.887Z,1.60
2023-04-15T20:17:52.125Z,1.60
2023-04-15T20:20:20.366Z,1.70
2023-04-15T20:22:48.186Z,1.80
2023-04-15T20:25:16.238Z,1.63
2023-04-15T20:27:44.030Z,1.70
2023-04-15T20:30:12.462Z,1.88
2023-04-15T20:32:41.633Z,1.70
2023-04-15T20:35:09.637Z,1.60
2023-04-15T20:37:40.336Z,1.50
2023-04-15T20:40:09.266Z,1.90
2023-04-15T20:42:37.033Z,1.90
2023-04-15T20:45:06.969Z,1.75
2023-04-15T20:47:34.802Z,1.63
2023-04-15T20:50:03.970Z,1.92
2023-04-15T20:52:31.831Z,1.80
2023-04-15T20:54:59.596Z,1.90
2023-04-15T20:57:28.706Z,1.80
2023-04-15T20:59:56.510Z,1.95
2023-04-15T21:02:24.710Z,2.05
2023-04-15T21:04:52.650Z,1.70
2023-04-15T21:07:21.801Z,2.17
2023-04-15T21:09:49.636Z,2.30
2023-04-15T21:12:17.457Z,2.38
2023-04-15T21:14:45.477Z,3.22
2023-04-15T21:17:13.291Z,4.00
2023-04-15T21:19:41.344Z,4.07
2023-04-15T21:22:09.120Z,3.53
2023-04-15T21:24:38.276Z,2.83
2023-04-15T21:27:06.354Z,2.75
2023-04-15T21:29:34.219Z,2.40
2023-04-15T21:32:02.069Z,2.90
2023-04-15T21:34:29.938Z,2.60
2023-04-15T21:36:57.709Z,2.75
2023-04-15T21:39:25.745Z,3.50
2023-04-15T21:41:54.989Z,4.47
2023-04-15T21:44:22.773Z,2.40
2023-04-15T21:46:51.002Z,2.22
2023-04-15T21:49:20.255Z,2.10
2023-04-15T21:51:48.531Z,1.80
2023-04-15T21:54:16.556Z,1.80
2023-04-15T21:56:44.385Z,2.17
2023-04-15T21:59:13.534Z,1.80
2023-04-15T22:01:41.336Z,2.17
2023-04-15T22:04:10.920Z,2.00
2023-04-15T22:06:39.392Z,2.28
2023-04-15T22:09:07.197Z,2.05
2023-04-15T22:11:35.005Z,1.65
2023-04-15T22:14:02.743Z,1.92
2023-04-15T22:16:31.948Z,1.90
2023-04-15T22:18:59.743Z,1.77
2023-04-15T22:21:27.847Z,2.10
2023-04-15T22:24:32.271Z,2.40
2023-04-15T22:26:43.646Z,2.03
2023-04-15T22:29:11.650Z,2.05
2023-04-15T22:31:40.845Z,2.38
2023-04-15T22:34:08.799Z,2.13
2023-04-15T22:36:36.620Z,2.35
2023-04-15T22:39:04.746Z,2.30
2023-04-15T22:41:32.689Z,2.53
2023-04-15T22:44:00.474Z,2.50
2023-04-15T22:46:28.255Z,2.10
2023-04-15T22:48:57.433Z,2.40
2023-04-15T22:51:26.926Z,2.40
2023-04-15T22:53:54.866Z,2.33
2023-04-15T22:56:23.525Z,2.40
2023-04-15T22:58:51.712Z,2.67
2023-04-15T23:01:20.781Z,2.38
2023-04-15T23:03:57.957Z,2.70
2023-04-15T23:06:34.638Z,2.38
2023-04-15T23:09:02.448Z,2.72
2023-04-15T23:11:30.308Z,2.42
2023-04-15T23:13:58.131Z,2.55
2023-04-15T23:16:26.038Z,3.00
2023-04-15T23:18:53.938Z,2.85
2023-04-15T23:21:22.216Z,2.45
2023-04-15T23:23:52.329Z,2.63
2023-04-15T23:26:20.109Z,2.65
2023-04-15T23:28:47.864Z,2.65
2023-04-15T23:31:15.619Z,2.45
2023-04-15T23:33:43.417Z,2.50
2023-04-15T23:36:11.191Z,2.40
2023-04-15T23:38:38.936Z,4.03
2023-04-15T23:41:08.870Z,2.78
2023-04-15T23:43:36.664Z,2.88
2023-04-15T23:46:04.496Z,2.58
2023-04-15T23:48:32.642Z,2.80
2023-04-15T23:51:01.566Z,3.03
2023-04-15T23:53:30.018Z,2.95
2023-04-15T23:55:57.923Z,3.00
2023-04-15T23:58:27.060Z,3.20
